sensor_id;sensor_type;location;lat;lon;timestamp;P1;durP1;ratioP1;P2;durP2;ratioP2
6113;SDS011;3087;48.392;10.836;2024-03-02T00:02:24;17.63;;;14.07;;
6113;SDS011;3087;48.392;10.836;2024-03-02T00:04:50;19.53;;;15.37;;
6113;SDS011;3087;48.392;10.836;2024-03-02T00:07:16;18.57;;;15.77;;
6113;SDS011;3087;48.392;10.836;2024-03-02T00:09:42;16.80;;;14.03;;
6113;SDS011;3087;48.392;10.836;2024-03-02T00:12:10;17.63;;;13.97;;
6113;SDS011;3087;48.392;10.836;2024-03-02T00:14:40;15.43;;;13.63;;
6113;SDS011;3087;48.392;10.836;2024-03-02T00:17:07;16.10;;;13.30;;
6113;SDS011;3087;48.392;10.836;2024-03-02T00:19:41;16.23;;;13.97;;
6113;SDS011;3087;48.392;10.836;2024-03-02T00:22:07;18.73;;;14.70;;
6113;SDS011;3087;48.392;10.836;2024-03-02T00:24:33;17.47;;;13.93;;
6113;SDS011;3087;48.392;10.836;2024-03-02T00:26:59;20.60;;;15.23;;
6113;SDS011;3087;48.392;10.836;2024-03-02T00:29:26;21.00;;;16.27;;
6113;SDS011;3087;48.392;10.836;2024-03-02T00:31:54;21.00;;;16.37;;
6113;SDS011;3087;48.392;10.836;2024-03-02T00:34:20;17.60;;;13.87;;
6113;SDS011;3087;48.392;10.836;2024-03-02T00:36:47;19.57;;;15.80;;
6113;SDS011;3087;48.392;10.836;2024-03-02T00:39:14;16.87;;;13.80;;
6113;SDS011;3087;48.392;10.836;2024-03-02T00:41:42;22.97;;;17.57;;
6113;SDS011;3087;48.392;10.836;2024-03-02T00:44:08;16.37;;;13.70;;
6113;SDS011;3087;48.392;10.836;2024-03-02T00:46:37;17.90;;;14.03;;
6113;SDS011;3087;48.392;10.836;2024-03-02T00:49:05;18.13;;;14.80;;
6113;SDS011;3087;48.392;10.836;2024-03-02T00:51:44;15.93;;;14.20;;
6113;SDS011;3087;48.392;10.836;2024-03-02T00:54:13;19.80;;;14.97;;
6113;SDS011;3087;48.392;10.836;2024-03-02T00:56:40;18.27;;;15.10;;
6113;SDS011;3087;48.392;10.836;2024-03-02T00:59:07;17.97;;;15.47;;
6113;SDS011;3087;48.392;10.836;2024-03-02T01:01:33;20.90;;;15.83;;
6113;SDS011;3087;48.392;10.836;2024-03-02T01:03:59;19.20;;;14.93;;
6113;SDS011;3087;48.392;10.836;2024-03-02T01:06:25;21.37;;;16.23;;
6113;SDS011;3087;48.392;10.836;2024-03-02T01:08:51;17.07;;;13.73;;
6113;SDS011;3087;48.392;10.836;2024-03-02T01:11:17;17.97;;;14.10;;
6113;SDS011;3087;48.392;10.836;2024-03-02T01:13:43;18.50;;;13.63;;
6113;SDS011;3087;48.392;10.836;2024-03-02T01:16:09;16.77;;;12.20;;
6113;SDS011;3087;48.392;10.836;2024-03-02T01:18:35;16.53;;;13.90;;
6113;SDS011;3087;48.392;10.836;2024-03-02T01:21:00;15.97;;;13.10;;
6113;SDS011;3087;48.392;10.836;2024-03-02T01:23:26;18.67;;;14.47;;
6113;SDS011;3087;48.392;10.836;2024-03-02T01:25:52;14.83;;;13.17;;
6113;SDS011;3087;48.392;10.836;2024-03-02T01:28:18;19.57;;;14.27;;
6113;SDS011;3087;48.392;10.836;2024-03-02T01:30:45;17.37;;;13.73;;
6113;SDS011;3087;48.392;10.836;2024-03-02T01:33:11;18.50;;;14.27;;
6113;SDS011;3087;48.392;10.836;2024-03-02T01:35:36;16.23;;;12.03;;
6113;SDS011;3087;48.392;10.836;2024-03-02T01:38:02;17.57;;;14.07;;
6113;SDS011;3087;48.392;10.836;2024-03-02T01:40:28;16.53;;;14.13;;
6113;SDS011;3087;48.392;10.836;2024-03-02T01:42:54;14.97;;;12.67;;
6113;SDS011;3087;48.392;10.836;2024-03-02T01:45:20;16.77;;;12.73;;
6113;SDS011;3087;48.392;10.836;2024-03-02T01:47:46;14.17;;;12.67;;
6113;SDS011;3087;48.392;10.836;2024-03-02T01:50:12;16.07;;;12.60;;
6113;SDS011;3087;48.392;10.836;2024-03-02T01:52:38;18.63;;;13.40;;
6113;SDS011;3087;48.392;10.836;2024-03-02T01:55:05;15.47;;;12.83;;
6113;SDS011;3087;48.392;10.836;2024-03-02T01:57:32;15.10;;;12.53;;
6113;SDS011;3087;48.392;10.836;2024-03-02T01:59:58;16.67;;;12.37;;
6113;SDS011;3087;48.392;10.836;2024-03-02T02:02:24;15.63;;;14.00;;
6113;SDS011;3087;48.392;10.836;2024-03-02T02:04:50;16.90;;;14.43;;
6113;SDS011;3087;48.392;10.836;2024-03-02T02:07:15;15.53;;;12.83;;
6113;SDS011;3087;48.392;10.836;2024-03-02T02:09:41;15.57;;;13.07;;
6113;SDS011;3087;48.392;10.836;2024-03-02T02:12:07;13.43;;;11.93;;
6113;SDS011;3087;48.392;10.836;2024-03-02T02:14:33;13.83;;;12.33;;
6113;SDS011;3087;48.392;10.836;2024-03-02T02:16:59;15.03;;;12.30;;
6113;SDS011;3087;48.392;10.836;2024-03-02T02:19:25;20.13;;;14.50;;
6113;SDS011;3087;48.392;10.836;2024-03-02T02:21:50;14.43;;;11.80;;
6113;SDS011;3087;48.392;10.836;2024-03-02T02:24:16;15.50;;;12.60;;
6113;SDS011;3087;48.392;10.836;2024-03-02T02:26:41;16.60;;;13.87;;
6113;SDS011;3087;48.392;10.836;2024-03-02T02:29:07;14.07;;;12.60;;
6113;SDS011;3087;48.392;10.836;2024-03-02T02:31:51;14.17;;;11.27;;
6113;SDS011;3087;48.392;10.836;2024-03-02T02:34:16;16.63;;;12.77;;
6113;SDS011;3087;48.392;10.836;2024-03-02T02:36:42;18.70;;;13.13;;
6113;SDS011;3087;48.392;10.836;2024-03-02T02:39:09;18.23;;;13.30;;
6113;SDS011;3087;48.392;10.836;2024-03-02T02:41:38;16.43;;;12.90;;
6113;SDS011;3087;48.392;10.836;2024-03-02T02:44:04;14.93;;;12.90;;
6113;SDS011;3087;48.392;10.836;2024-03-02T02:46:30;17.77;;;14.03;;
6113;SDS011;3087;48.392;10.836;2024-03-02T02:48:55;15.67;;;13.10;;
6113;SDS011;3087;48.392;10.836;2024-03-02T02:51:21;16.00;;;13.00;;
6113;SDS011;3087;48.392;10.836;2024-03-02T02:53:47;13.40;;;11.87;;
6113;SDS011;3087;48.392;10.836;2024-03-02T02:56:12;17.93;;;14.30;;
6113;SDS011;3087;48.392;10.836;2024-03-02T02:58:39;18.37;;;15.47;;
6113;SDS011;3087;48.392;10.836;2024-03-02T03:01:06;12.70;;;10.67;;
6113;SDS011;3087;48.392;10.836;2024-03-02T03:03:32;13.00;;;10.87;;
6113;SDS011;3087;48.392;10.836;2024-03-02T03:05:58;15.03;;;12.13;;
6113;SDS011;3087;48.392;10.836;2024-03-02T03:08:23;17.37;;;14.90;;
6113;SDS011;3087;48.392;10.836;2024-03-02T03:10:49;16.07;;;13.67;;
6113;SDS011;3087;48.392;10.836;2024-03-02T03:13:15;15.43;;;12.83;;
6113;SDS011;3087;48.392;10.836;2024-03-02T03:15:40;16.43;;;13.17;;
6113;SDS011;3087;48.392;10.836;2024-03-02T03:18:06;15.10;;;13.50;;
6113;SDS011;3087;48.392;10.836;2024-03-02T03:20:35;16.53;;;14.27;;
6113;SDS011;3087;48.392;10.836;2024-03-02T03:23:01;16.73;;;14.00;;
6113;SDS011;3087;48.392;10.836;2024-03-02T03:25:26;19.37;;;15.37;;
6113;SDS011;3087;48.392;10.836;2024-03-02T03:27:52;18.27;;;14.77;;
6113;SDS011;3087;48.392;10.836;2024-03-02T03:30:17;13.67;;;12.20;;
6113;SDS011;3087;48.392;10.836;2024-03-02T03:32:43;15.13;;;13.30;;
6113;SDS011;3087;48.392;10.836;2024-03-02T03:35:09;14.80;;;12.27;;
6113;SDS011;3087;48.392;10.836;2024-03-02T03:37:34;15.20;;;13.43;;
6113;SDS011;3087;48.392;10.836;2024-03-02T03:40:01;19.97;;;15.37;;
6113;SDS011;3087;48.392;10.836;2024-03-02T03:42:27;16.47;;;14.47;;
6113;SDS011;3087;48.392;10.836;2024-03-02T03:44:53;18.20;;;14.73;;
6113;SDS011;3087;48.392;10.836;2024-03-02T03:47:19;11.60;;;10.50;;
6113;SDS011;3087;48.392;10.836;2024-03-02T03:49:45;10.47;;;9.40;;
6113;SDS011;3087;48.392;10.836;2024-03-02T03:52:11;11.73;;;9.20;;
6113;SDS011;3087;48.392;10.836;2024-03-02T03:54:36;10.00;;;9.03;;
6113;SDS011;3087;48.392;10.836;2024-03-02T03:57:03;12.03;;;9.80;;
6113;SDS011;3087;48.392;10.836;2024-03-02T03:59:29;12.50;;;11.20;;
6113;SDS011;3087;48.392;10.836;2024-03-02T04:01:54;18.57;;;14.23;;
6113;SDS011;3087;48.392;10.836;2024-03-02T04:04:20;15.77;;;14.07;;
6113;SDS011;3087;48.392;10.836;2024-03-02T04:06:46;19.63;;;15.43;;
6113;SDS011;3087;48.392;10.836;2024-03-02T04:09:11;20.37;;;16.33;;
6113;SDS011;3087;48.392;10.836;2024-03-02T04:11:37;19.23;;;15.87;;
6113;SDS011;3087;48.392;10.836;2024-03-02T04:14:02;17.53;;;14.50;;
6113;SDS011;3087;48.392;10.836;2024-03-02T04:16:28;18.13;;;14.17;;
6113;SDS011;3087;48.392;10.836;2024-03-02T04:18:54;18.67;;;14.87;;
6113;SDS011;3087;48.392;10.836;2024-03-02T04:21:20;24.30;;;17.63;;
6113;SDS011;3087;48.392;10.836;2024-03-02T04:23:45;18.63;;;15.97;;
6113;SDS011;3087;48.392;10.836;2024-03-02T04:26:11;20.40;;;16.07;;
6113;SDS011;3087;48.392;10.836;2024-03-02T04:28:37;18.13;;;15.83;;
6113;SDS011;3087;48.392;10.836;2024-03-02T04:31:02;20.10;;;16.33;;
6113;SDS011;3087;48.392;10.836;2024-03-02T04:33:28;17.43;;;14.13;;
6113;SDS011;3087;48.392;10.836;2024-03-02T04:35:54;16.30;;;13.57;;
6113;SDS011;3087;48.392;10.836;2024-03-02T04:38:19;20.27;;;15.97;;
6113;SDS011;3087;48.392;10.836;2024-03-02T04:40:45;15.57;;;13.33;;
6113;SDS011;3087;48.392;10.836;2024-03-02T04:43:10;14.77;;;12.40;;
6113;SDS011;3087;48.392;10.836;2024-03-02T04:45:40;16.00;;;13.40;;
6113;SDS011;3087;48.392;10.836;2024-03-02T04:48:05;13.93;;;12.20;;
6113;SDS011;3087;48.392;10.836;2024-03-02T04:50:31;16.57;;;14.03;;
6113;SDS011;3087;48.392;10.836;2024-03-02T04:52:57;17.63;;;12.33;;
6113;SDS011;3087;48.392;10.836;2024-03-02T04:55:22;18.67;;;15.63;;
6113;SDS011;3087;48.392;10.836;2024-03-02T04:57:54;20.77;;;15.93;;
6113;SDS011;3087;48.392;10.836;2024-03-02T05:00:20;24.57;;;17.80;;
6113;SDS011;3087;48.392;10.836;2024-03-02T05:02:46;19.60;;;15.07;;
6113;SDS011;3087;48.392;10.836;2024-03-02T05:05:12;18.30;;;14.97;;
6113;SDS011;3087;48.392;10.836;2024-03-02T05:07:38;15.27;;;12.70;;
6113;SDS011;3087;48.392;10.836;2024-03-02T05:10:03;16.43;;;12.60;;
6113;SDS011;3087;48.392;10.836;2024-03-02T05:12:29;18.87;;;15.63;;
6113;SDS011;3087;48.392;10.836;2024-03-02T05:15:21;19.03;;;14.77;;
6113;SDS011;3087;48.392;10.836;2024-03-02T05:17:46;20.20;;;15.30;;
6113;SDS011;3087;48.392;10.836;2024-03-02T05:20:12;21.37;;;16.30;;
6113;SDS011;3087;48.392;10.836;2024-03-02T05:22:38;15.73;;;12.83;;
6113;SDS011;3087;48.392;10.836;2024-03-02T05:25:04;17.70;;;15.13;;
6113;SDS011;3087;48.392;10.836;2024-03-02T05:27:31;20.77;;;16.10;;
6113;SDS011;3087;48.392;10.836;2024-03-02T05:29:59;18.70;;;13.33;;
6113;SDS011;3087;48.392;10.836;2024-03-02T05:32:25;14.23;;;12.70;;
6113;SDS011;3087;48.392;10.836;2024-03-02T05:34:51;20.10;;;15.57;;
6113;SDS011;3087;48.392;10.836;2024-03-02T05:37:17;15.60;;;13.17;;
6113;SDS011;3087;48.392;10.836;2024-03-02T05:39:43;15.37;;;12.83;;
6113;SDS011;3087;48.392;10.836;2024-03-02T05:42:08;16.77;;;13.73;;
6113;SDS011;3087;48.392;10.836;2024-03-02T05:44:35;16.60;;;14.07;;
6113;SDS011;3087;48.392;10.836;2024-03-02T05:47:01;16.00;;;13.27;;
6113;SDS011;3087;48.392;10.836;2024-03-02T05:49:26;17.10;;;13.77;;
6113;SDS011;3087;48.392;10.836;2024-03-02T05:51:52;16.37;;;12.67;;
6113;SDS011;3087;48.392;10.836;2024-03-02T05:54:17;16.80;;;14.13;;
6113;SDS011;3087;48.392;10.836;2024-03-02T05:56:43;16.23;;;13.90;;
6113;SDS011;3087;48.392;10.836;2024-03-02T05:59:09;20.50;;;15.97;;
6113;SDS011;3087;48.392;10.836;2024-03-02T06:01:38;18.00;;;14.33;;
6113;SDS011;3087;48.392;10.836;2024-03-02T06:04:04;16.73;;;13.77;;
6113;SDS011;3087;48.392;10.836;2024-03-02T06:06:30;17.27;;;14.50;;
6113;SDS011;3087;48.392;10.836;2024-03-02T06:08:58;17.73;;;13.90;;
6113;SDS011;3087;48.392;10.836;2024-03-02T06:11:30;16.17;;;14.40;;
6113;SDS011;3087;48.392;10.836;2024-03-02T06:13:55;16.97;;;14.57;;
6113;SDS011;3087;48.392;10.836;2024-03-02T06:16:21;16.53;;;14.40;;
6113;SDS011;3087;48.392;10.836;2024-03-02T06:18:47;21.77;;;17.33;;
6113;SDS011;3087;48.392;10.836;2024-03-02T06:21:12;15.47;;;13.40;;
6113;SDS011;3087;48.392;10.836;2024-03-02T06:23:38;17.33;;;14.20;;
6113;SDS011;3087;48.392;10.836;2024-03-02T06:26:03;17.60;;;13.97;;
6113;SDS011;3087;48.392;10.836;2024-03-02T06:28:29;16.20;;;13.77;;
6113;SDS011;3087;48.392;10.836;2024-03-02T06:30:54;16.90;;;14.40;;
6113;SDS011;3087;48.392;10.836;2024-03-02T06:33:20;14.83;;;13.23;;
6113;SDS011;3087;48.392;10.836;2024-03-02T06:35:46;15.30;;;13.70;;
6113;SDS011;3087;48.392;10.836;2024-03-02T06:38:11;17.67;;;14.47;;
6113;SDS011;3087;48.392;10.836;2024-03-02T06:40:37;16.97;;;14.07;;
6113;SDS011;3087;48.392;10.836;2024-03-02T06:43:06;17.90;;;14.90;;
6113;SDS011;3087;48.392;10.836;2024-03-02T06:45:31;17.93;;;14.53;;
6113;SDS011;3087;48.392;10.836;2024-03-02T06:47:59;16.17;;;13.17;;
6113;SDS011;3087;48.392;10.836;2024-03-02T06:50:25;14.60;;;13.10;;
6113;SDS011;3087;48.392;10.836;2024-03-02T06:52:50;14.17;;;12.67;;
6113;SDS011;3087;48.392;10.836;2024-03-02T06:55:16;16.77;;;12.70;;
6113;SDS011;3087;48.392;10.836;2024-03-02T06:57:41;14.77;;;13.07;;
6113;SDS011;3087;48.392;10.836;2024-03-02T07:00:07;16.77;;;13.10;;
6113;SDS011;3087;48.392;10.836;2024-03-02T07:02:34;13.97;;;12.27;;
6113;SDS011;3087;48.392;10.836;2024-03-02T07:05:01;13.73;;;12.27;;
6113;SDS011;3087;48.392;10.836;2024-03-02T07:07:27;14.30;;;12.90;;
6113;SDS011;3087;48.392;10.836;2024-03-02T07:09:52;14.50;;;13.00;;
6113;SDS011;3087;48.392;10.836;2024-03-02T07:12:18;15.20;;;13.40;;
6113;SDS011;3087;48.392;10.836;2024-03-02T07:14:43;14.13;;;12.63;;
6113;SDS011;3087;48.392;10.836;2024-03-02T07:17:27;12.57;;;11.23;;
6113;SDS011;3087;48.392;10.836;2024-03-02T07:19:52;13.30;;;11.73;;
6113;SDS011;3087;48.392;10.836;2024-03-02T07:22:18;13.37;;;11.47;;
6113;SDS011;3087;48.392;10.836;2024-03-02T07:24:44;12.70;;;11.40;;
6113;SDS011;3087;48.392;10.836;2024-03-02T07:27:11;14.83;;;13.30;;
6113;SDS011;3087;48.392;10.836;2024-03-02T07:29:38;15.57;;;13.97;;
6113;SDS011;3087;48.392;10.836;2024-03-02T07:32:04;15.67;;;13.23;;
6113;SDS011;3087;48.392;10.836;2024-03-02T07:34:30;15.33;;;12.83;;
6113;SDS011;3087;48.392;10.836;2024-03-02T07:36:56;13.60;;;10.80;;
6113;SDS011;3087;48.392;10.836;2024-03-02T07:39:22;11.43;;;10.23;;
6113;SDS011;3087;48.392;10.836;2024-03-02T07:41:47;10.70;;;9.13;;
6113;SDS011;3087;48.392;10.836;2024-03-02T07:44:13;12.43;;;11.13;;
6113;SDS011;3087;48.392;10.836;2024-03-02T07:46:42;9.20;;;8.30;;
6113;SDS011;3087;48.392;10.836;2024-03-02T07:49:08;12.20;;;10.97;;
6113;SDS011;3087;48.392;10.836;2024-03-02T07:51:35;12.03;;;10.77;;
6113;SDS011;3087;48.392;10.836;2024-03-02T07:54:01;12.83;;;11.53;;
6113;SDS011;3087;48.392;10.836;2024-03-02T07:56:27;14.90;;;11.73;;
6113;SDS011;3087;48.392;10.836;2024-03-02T07:58:52;11.17;;;9.90;;
6113;SDS011;3087;48.392;10.836;2024-03-02T08:01:18;11.07;;;9.98;;
6113;SDS011;3087;48.392;10.836;2024-03-02T08:03:44;14.10;;;11.20;;
6113;SDS011;3087;48.392;10.836;2024-03-02T08:06:15;12.73;;;11.17;;
6113;SDS011;3087;48.392;10.836;2024-03-02T08:08:45;12.70;;;11.40;;
6113;SDS011;3087;48.392;10.836;2024-03-02T08:11:11;10.30;;;9.23;;
6113;SDS011;3087;48.392;10.836;2024-03-02T08:13:37;9.97;;;8.97;;
6113;SDS011;3087;48.392;10.836;2024-03-02T08:16:03;9.17;;;8.27;;
6113;SDS011;3087;48.392;10.836;2024-03-02T08:18:32;9.57;;;8.67;;
6113;SDS011;3087;48.392;10.836;2024-03-02T08:20:57;9.03;;;8.13;;
6113;SDS011;3087;48.392;10.836;2024-03-02T08:23:23;8.50;;;7.63;;
6113;SDS011;3087;48.392;10.836;2024-03-02T08:25:48;9.50;;;8.10;;
6113;SDS011;3087;48.392;10.836;2024-03-02T08:28:14;9.20;;;8.30;;
6113;SDS011;3087;48.392;10.836;2024-03-02T08:30:40;8.70;;;7.70;;
6113;SDS011;3087;48.392;10.836;2024-03-02T08:33:05;7.70;;;6.63;;
6113;SDS011;3087;48.392;10.836;2024-03-02T08:35:31;8.07;;;7.33;;
6113;SDS011;3087;48.392;10.836;2024-03-02T08:38:01;7.05;;;6.45;;
6113;SDS011;3087;48.392;10.836;2024-03-02T08:40:28;7.65;;;6.85;;
6113;SDS011;3087;48.392;10.836;2024-03-02T08:42:54;6.38;;;5.78;;
6113;SDS011;3087;48.392;10.836;2024-03-02T08:45:19;7.35;;;5.78;;
6113;SDS011;3087;48.392;10.836;2024-03-02T08:47:45;6.72;;;6.13;;
6113;SDS011;3087;48.392;10.836;2024-03-02T08:50:11;6.32;;;5.72;;
6113;SDS011;3087;48.392;10.836;2024-03-02T08:52:37;6.22;;;5.63;;
6113;SDS011;3087;48.392;10.836;2024-03-02T08:55:02;6.22;;;5.65;;
6113;SDS011;3087;48.392;10.836;2024-03-02T08:57:28;6.05;;;5.45;;
6113;SDS011;3087;48.392;10.836;2024-03-02T08:59:54;5.07;;;4.60;;
6113;SDS011;3087;48.392;10.836;2024-03-02T09:02:19;5.63;;;5.13;;
6113;SDS011;3087;48.392;10.836;2024-03-02T09:04:46;5.85;;;5.25;;
6113;SDS011;3087;48.392;10.836;2024-03-02T09:07:12;5.90;;;5.40;;
6113;SDS011;3087;48.392;10.836;2024-03-02T09:09:37;6.07;;;5.47;;
6113;SDS011;3087;48.392;10.836;2024-03-02T09:12:04;6.15;;;5.40;;
6113;SDS011;3087;48.392;10.836;2024-03-02T09:14:31;6.43;;;5.72;;
6113;SDS011;3087;48.392;10.836;2024-03-02T09:16:56;5.85;;;5.32;;
6113;SDS011;3087;48.392;10.836;2024-03-02T09:19:22;5.55;;;5.05;;
6113;SDS011;3087;48.392;10.836;2024-03-02T09:21:47;5.05;;;4.55;;
6113;SDS011;3087;48.392;10.836;2024-03-02T09:24:13;5.60;;;5.05;;
6113;SDS011;3087;48.392;10.836;2024-03-02T09:26:38;5.60;;;4.85;;
6113;SDS011;3087;48.392;10.836;2024-03-02T09:29:04;5.05;;;4.55;;
6113;SDS011;3087;48.392;10.836;2024-03-02T09:31:29;5.97;;;4.88;;
6113;SDS011;3087;48.392;10.836;2024-03-02T09:33:55;5.60;;;4.93;;
6113;SDS011;3087;48.392;10.836;2024-03-02T09:36:21;5.35;;;4.85;;
6113;SDS011;3087;48.392;10.836;2024-03-02T09:38:48;5.03;;;4.55;;
6113;SDS011;3087;48.392;10.836;2024-03-02T09:41:17;6.80;;;4.47;;
6113;SDS011;3087;48.392;10.836;2024-03-02T09:43:42;5.22;;;4.00;;
6113;SDS011;3087;48.392;10.836;2024-03-02T09:46:11;5.20;;;4.70;;
6113;SDS011;3087;48.392;10.836;2024-03-02T09:48:37;5.07;;;4.57;;
6113;SDS011;3087;48.392;10.836;2024-03-02T09:51:03;4.50;;;4.13;;
6113;SDS011;3087;48.392;10.836;2024-03-02T09:53:31;5.47;;;4.65;;
6113;SDS011;3087;48.392;10.836;2024-03-02T09:55:58;5.85;;;4.30;;
6113;SDS011;3087;48.392;10.836;2024-03-02T09:58:25;5.30;;;4.70;;
6113;SDS011;3087;48.392;10.836;2024-03-02T10:00:50;5.38;;;4.70;;
6113;SDS011;3087;48.392;10.836;2024-03-02T10:03:16;5.20;;;4.72;;
6113;SDS011;3087;48.392;10.836;2024-03-02T10:05:43;6.97;;;4.30;;
6113;SDS011;3087;48.392;10.836;2024-03-02T10:08:09;5.03;;;4.15;;
6113;SDS011;3087;48.392;10.836;2024-03-02T10:10:38;4.43;;;4.03;;
6113;SDS011;3087;48.392;10.836;2024-03-02T10:13:06;3.60;;;3.30;;
6113;SDS011;3087;48.392;10.836;2024-03-02T10:15:32;5.88;;;3.70;;
6113;SDS011;3087;48.392;10.836;2024-03-02T10:17:58;3.78;;;3.45;;
6113;SDS011;3087;48.392;10.836;2024-03-02T10:20:24;4.45;;;3.58;;
6113;SDS011;3087;48.392;10.836;2024-03-02T10:22:53;4.75;;;3.33;;
6113;SDS011;3087;48.392;10.836;2024-03-02T10:25:31;3.80;;;3.45;;
6113;SDS011;3087;48.392;10.836;2024-03-02T10:27:58;3.60;;;3.30;;
6113;SDS011;3087;48.392;10.836;2024-03-02T10:30:27;4.13;;;3.55;;
6113;SDS011;3087;48.392;10.836;2024-03-02T10:32:53;4.40;;;3.70;;
6113;SDS011;3087;48.392;10.836;2024-03-02T10:35:20;4.55;;;3.67;;
6113;SDS011;3087;48.392;10.836;2024-03-02T10:37:47;3.63;;;3.33;;
6113;SDS011;3087;48.392;10.836;2024-03-02T10:40:13;4.15;;;3.60;;
6113;SDS011;3087;48.392;10.836;2024-03-02T10:42:39;3.88;;;3.42;;
6113;SDS011;3087;48.392;10.836;2024-03-02T10:45:08;4.10;;;3.15;;
6113;SDS011;3087;48.392;10.836;2024-03-02T10:47:36;4.68;;;3.70;;
6113;SDS011;3087;48.392;10.836;2024-03-02T10:50:06;3.65;;;3.30;;
6113;SDS011;3087;48.392;10.836;2024-03-02T10:52:34;3.90;;;3.60;;
6113;SDS011;3087;48.392;10.836;2024-03-02T10:55:00;4.90;;;3.00;;
6113;SDS011;3087;48.392;10.836;2024-03-02T10:57:26;4.15;;;3.50;;
6113;SDS011;3087;48.392;10.836;2024-03-02T10:59:57;3.20;;;2.97;;
6113;SDS011;3087;48.392;10.836;2024-03-02T11:02:28;3.40;;;3.10;;
6113;SDS011;3087;48.392;10.836;2024-03-02T11:04:56;3.17;;;2.88;;
6113;SDS011;3087;48.392;10.836;2024-03-02T11:07:31;4.18;;;3.13;;
6113;SDS011;3087;48.392;10.836;2024-03-02T11:09:59;3.83;;;2.88;;
6113;SDS011;3087;48.392;10.836;2024-03-02T11:12:44;4.38;;;3.47;;
6113;SDS011;3087;48.392;10.836;2024-03-02T11:15:24;3.78;;;3.47;;
6113;SDS011;3087;48.392;10.836;2024-03-02T11:17:51;3.83;;;3.53;;
6113;SDS011;3087;48.392;10.836;2024-03-02T11:20:17;4.00;;;3.70;;
6113;SDS011;3087;48.392;10.836;2024-03-02T11:22:44;5.28;;;4.78;;
6113;SDS011;3087;48.392;10.836;2024-03-02T11:25:26;3.92;;;3.63;;
6113;SDS011;3087;48.392;10.836;2024-03-02T11:33:06;4.70;;;4.30;;
6113;SDS011;3087;48.392;10.836;2024-03-02T11:35:32;5.65;;;4.93;;
6113;SDS011;3087;48.392;10.836;2024-03-02T11:37:59;5.95;;;5.15;;
6113;SDS011;3087;48.392;10.836;2024-03-02T11:40:28;5.60;;;5.03;;
6113;SDS011;3087;48.392;10.836;2024-03-02T11:42:54;6.90;;;5.40;;
6113;SDS011;3087;48.392;10.836;2024-03-02T11:45:26;5.75;;;5.15;;
6113;SDS011;3087;48.392;10.836;2024-03-02T11:47:56;6.85;;;5.00;;
6113;SDS011;3087;48.392;10.836;2024-03-02T11:53:11;6.68;;;6.07;;
6113;SDS011;3087;48.392;10.836;2024-03-02T11:55:37;6.75;;;6.15;;
6113;SDS011;3087;48.392;10.836;2024-03-02T11:58:13;6.82;;;6.13;;
6113;SDS011;3087;48.392;10.836;2024-03-02T12:00:42;7.57;;;6.88;;
6113;SDS011;3087;48.392;10.836;2024-03-02T12:03:10;8.55;;;7.75;;
6113;SDS011;3087;48.392;10.836;2024-03-02T12:05:38;6.65;;;6.03;;
6113;SDS011;3087;48.392;10.836;2024-03-02T12:08:07;6.18;;;5.57;;
6113;SDS011;3087;48.392;10.836;2024-03-02T12:10:34;6.97;;;6.07;;
6113;SDS011;3087;48.392;10.836;2024-03-02T12:13:02;7.55;;;6.20;;
6113;SDS011;3087;48.392;10.836;2024-03-02T12:15:32;5.65;;;5.15;;
6113;SDS011;3087;48.392;10.836;2024-03-02T12:18:00;4.50;;;3.90;;
6113;SDS011;3087;48.392;10.836;2024-03-02T12:20:27;6.10;;;5.50;;
6113;SDS011;3087;48.392;10.836;2024-03-02T12:22:54;6.88;;;5.55;;
6113;SDS011;3087;48.392;10.836;2024-03-02T12:25:23;5.93;;;4.70;;
6113;SDS011;3087;48.392;10.836;2024-03-02T12:27:50;6.30;;;5.70;;
6113;SDS011;3087;48.392;10.836;2024-03-02T12:30:20;7.28;;;6.22;;
6113;SDS011;3087;48.392;10.836;2024-03-02T12:32:46;8.38;;;7.53;;
6113;SDS011;3087;48.392;10.836;2024-03-02T12:35:13;9.65;;;8.65;;
6113;SDS011;3087;48.392;10.836;2024-03-02T12:40:09;8.82;;;7.60;;
6113;SDS011;3087;48.392;10.836;2024-03-02T12:42:39;7.75;;;6.93;;
6113;SDS011;3087;48.392;10.836;2024-03-02T12:45:07;9.52;;;8.40;;
6113;SDS011;3087;48.392;10.836;2024-03-02T12:47:36;10.25;;;9.15;;
6113;SDS011;3087;48.392;10.836;2024-03-02T12:50:02;11.55;;;9.48;;
6113;SDS011;3087;48.392;10.836;2024-03-02T12:52:28;10.93;;;9.80;;
6113;SDS011;3087;48.392;10.836;2024-03-02T12:54:55;12.25;;;10.63;;
6113;SDS011;3087;48.392;10.836;2024-03-02T12:57:30;14.88;;;11.75;;
6113;SDS011;3087;48.392;10.836;2024-03-02T13:00:00;14.70;;;12.35;;
6113;SDS011;3087;48.392;10.836;2024-03-02T13:02:34;14.40;;;11.48;;
6113;SDS011;3087;48.392;10.836;2024-03-02T13:05:00;12.35;;;10.73;;
6113;SDS011;3087;48.392;10.836;2024-03-02T13:07:26;12.18;;;10.93;;
6113;SDS011;3087;48.392;10.836;2024-03-02T13:09:52;14.38;;;11.45;;
6113;SDS011;3087;48.392;10.836;2024-03-02T13:12:20;13.52;;;11.93;;
6113;SDS011;3087;48.392;10.836;2024-03-02T13:14:50;14.52;;;11.50;;
6113;SDS011;3087;48.392;10.836;2024-03-02T13:17:17;11.70;;;10.32;;
6113;SDS011;3087;48.392;10.836;2024-03-02T13:20:04;11.02;;;9.93;;
6113;SDS011;3087;48.392;10.836;2024-03-02T13:22:33;13.25;;;10.40;;
6113;SDS011;3087;48.392;10.836;2024-03-02T13:24:58;12.18;;;10.77;;
6113;SDS011;3087;48.392;10.836;2024-03-02T13:27:26;12.00;;;10.13;;
6113;SDS011;3087;48.392;10.836;2024-03-02T13:29:51;12.95;;;10.93;;
6113;SDS011;3087;48.392;10.836;2024-03-02T13:32:17;12.20;;;9.73;;
6113;SDS011;3087;48.392;10.836;2024-03-02T13:34:48;12.93;;;11.18;;
6113;SDS011;3087;48.392;10.836;2024-03-02T13:37:14;12.57;;;10.63;;
6113;SDS011;3087;48.392;10.836;2024-03-02T13:39:39;14.93;;;11.43;;
6113;SDS011;3087;48.392;10.836;2024-03-02T13:42:09;13.75;;;11.45;;
6113;SDS011;3087;48.392;10.836;2024-03-02T13:44:37;13.05;;;11.35;;
6113;SDS011;3087;48.392;10.836;2024-03-02T13:47:03;15.18;;;11.60;;
6113;SDS011;3087;48.392;10.836;2024-03-02T13:49:29;11.23;;;10.02;;
6113;SDS011;3087;48.392;10.836;2024-03-02T13:52:07;13.25;;;11.40;;
6113;SDS011;3087;48.392;10.836;2024-03-02T13:54:37;12.73;;;10.57;;
6113;SDS011;3087;48.392;10.836;2024-03-02T13:57:04;11.35;;;9.45;;
6113;SDS011;3087;48.392;10.836;2024-03-02T13:59:30;11.65;;;9.48;;
6113;SDS011;3087;48.392;10.836;2024-03-02T14:01:55;11.15;;;9.95;;
6113;SDS011;3087;48.392;10.836;2024-03-02T14:04:21;13.05;;;11.32;;
6113;SDS011;3087;48.392;10.836;2024-03-02T14:06:47;16.40;;;12.20;;
6113;SDS011;3087;48.392;10.836;2024-03-02T14:09:13;12.73;;;11.38;;
6113;SDS011;3087;48.392;10.836;2024-03-02T14:11:38;14.02;;;11.70;;
6113;SDS011;3087;48.392;10.836;2024-03-02T14:14:04;14.88;;;12.63;;
6113;SDS011;3087;48.392;10.836;2024-03-02T14:16:29;14.82;;;13.05;;
6113;SDS011;3087;48.392;10.836;2024-03-02T14:18:55;15.82;;;14.02;;
6113;SDS011;3087;48.392;10.836;2024-03-02T14:21:21;17.63;;;13.73;;
6113;SDS011;3087;48.392;10.836;2024-03-02T14:23:46;16.63;;;12.30;;
6113;SDS011;3087;48.392;10.836;2024-03-02T14:26:12;13.95;;;12.25;;
6113;SDS011;3087;48.392;10.836;2024-03-02T14:28:38;12.07;;;10.82;;
6113;SDS011;3087;48.392;10.836;2024-03-02T14:31:03;11.50;;;10.27;;
6113;SDS011;3087;48.392;10.836;2024-03-02T14:33:29;14.32;;;10.50;;
6113;SDS011;3087;48.392;10.836;2024-03-02T14:35:56;12.32;;;10.07;;
6113;SDS011;3087;48.392;10.836;2024-03-02T14:38:22;12.75;;;9.52;;
6113;SDS011;3087;48.392;10.836;2024-03-02T14:40:48;11.32;;;10.10;;
6113;SDS011;3087;48.392;10.836;2024-03-02T14:43:13;13.40;;;10.77;;
6113;SDS011;3087;48.392;10.836;2024-03-02T14:45:39;11.48;;;10.13;;
6113;SDS011;3087;48.392;10.836;2024-03-02T14:48:05;12.13;;;10.25;;
6113;SDS011;3087;48.392;10.836;2024-03-02T14:50:31;12.20;;;10.00;;
6113;SDS011;3087;48.392;10.836;2024-03-02T14:52:57;13.45;;;8.70;;